East Lyme, Connecticut
Current Conditions -  °F | °C
As of 1:56 AM on Thursday 23 Oct 2014 (Local Time) from KGON Reporting Station
Light Rain Light Rain  
Wind Chill: 50°   Ceiling: 7500
Heat Index: 50°   Visibility: 10mi
Dew Point: 48°   Wind: 24mph
Humidity: 93%   Direction: 10°N
Pressure: 29.63"   Gusts: 40mph
Location:  41.37°N, 72.22°W
Report Text: KGON 230556Z AUTO 01021G35KT 10SM -RA FEW018 BKN075 OVC100 10/09 A2963 RMK AO2 PK WND 02035/0548 RAB02 SLP034 P0003 60023 T01000089 10117 20094 58021
Loading
Personal Weather Stations






























Interactive Weather Map
Tropical Storm Tracking
New forecast layout! Learn more

10-Day Weather Forecast

Advertisements
Track Severe Weather on mobile